Time;durP1;ratioP1;P1;durP2;ratioP2;P2;SDS_P1;SDS_P2;PMS_P1;PMS_P2;Temp;Humidity;BMP_temperature;BMP_pressure;BME280_temperature;BME280_humidity;BME280_pressure;Samples;Min_cycle;Max_cycle;Signal;HPM_P1;HPM_P2
2023/01/26 00:00:14;;;;;;;2.00;1.90;;;;;;;21.06;32.71;99666.63;1850907;76;28309;-53
2023/01/26 00:03:02;;;;;;;1.90;1.80;;;;;;;21.10;32.66;99659.66;1874638;75;28279;-53
2023/01/26 00:05:51;;;;;;;2.10;2.00;;;;;;;21.10;32.60;99657.78;1877191;75;28196;-52
2023/01/26 00:08:42;;;;;;;2.02;1.92;;;;;;;21.17;32.56;99648.16;1848666;75;28314;-53
2023/01/26 00:11:30;;;;;;;2.03;1.90;;;;;;;21.17;32.52;99649.53;1840711;77;28226;-52
2023/01/26 00:14:19;;;;;;;1.90;1.80;;;;;;;21.13;32.61;99646.94;1879975;75;28066;-51
2023/01/26 00:17:07;;;;;;;2.10;2.00;;;;;;;21.16;32.58;99646.51;1892935;75;28093;-54
2023/01/26 00:19:58;;;;;;;1.87;1.77;;;;;;;21.17;32.57;99638.60;1866030;76;28295;-54
2023/01/26 00:22:46;;;;;;;2.20;2.00;;;;;;;21.17;32.58;99629.04;1853990;76;28794;-54
2023/01/26 00:25:38;;;;;;;2.10;2.00;;;;;;;21.20;32.56;99632.18;1874020;75;28083;-54
2023/01/26 00:28:28;;;;;;;2.10;2.00;;;;;;;21.19;32.57;99621.48;1881509;75;28274;-52
2023/01/26 00:31:20;;;;;;;2.00;1.90;;;;;;;21.17;32.58;99618.95;1896825;74;28080;-55
2023/01/26 00:34:08;;;;;;;1.87;1.77;;;;;;;21.19;32.59;99611.92;1836888;76;28375;-55
2023/01/26 00:36:56;;;;;;;2.05;1.95;;;;;;;21.18;32.60;99606.98;1885381;75;28131;-54
2023/01/26 00:39:45;;;;;;;1.90;1.80;;;;;;;21.19;32.63;99603.17;1879435;75;28138;-55
2023/01/26 00:42:33;;;;;;;1.87;1.77;;;;;;;21.18;32.64;99602.89;1875077;75;28136;-53
2023/01/26 00:45:23;;;;;;;2.02;1.92;;;;;;;21.18;32.61;99597.95;1875105;75;28096;-54
2023/01/26 00:48:11;;;;;;;2.05;1.95;;;;;;;21.20;32.63;99591.73;1875854;75;28250;-54
2023/01/26 00:50:59;;;;;;;2.02;1.92;;;;;;;21.19;32.64;99588.70;1886487;75;28121;-52
2023/01/26 00:53:47;;;;;;;2.12;1.95;;;;;;;21.21;32.64;99597.52;1892930;75;28049;-52
2023/01/26 00:56:36;;;;;;;1.87;1.77;;;;;;;21.20;32.64;99595.83;1888665;75;28636;-53
2023/01/26 00:59:25;;;;;;;2.00;1.90;;;;;;;21.22;32.64;99590.97;1898418;75;27998;-53
2023/01/26 01:02:13;;;;;;;1.82;1.72;;;;;;;21.22;32.65;99585.51;1899313;75;28512;-57
2023/01/26 01:05:02;;;;;;;2.30;2.10;;;;;;;21.21;32.66;99584.66;1879034;75;28023;-51
2023/01/26 01:07:51;;;;;;;1.87;1.77;;;;;;;21.20;32.68;99578.91;1899842;75;28104;-54
2023/01/26 01:10:39;;;;;;;1.80;1.70;;;;;;;21.21;32.69;99577.02;1871967;75;28119;-53
2023/01/26 01:13:27;;;;;;;2.40;2.20;;;;;;;21.20;32.71;99578.06;1890183;75;28188;-51
2023/01/26 01:16:16;;;;;;;1.80;1.70;;;;;;;21.24;32.67;99571.94;1875566;75;28103;-55
2023/01/26 01:19:06;;;;;;;1.85;1.75;;;;;;;21.23;32.71;99572.16;1868860;75;28158;-53
2023/01/26 01:21:56;;;;;;;1.83;1.73;;;;;;;21.23;32.69;99562.61;1879864;75;28014;-54
2023/01/26 01:24:44;;;;;;;1.95;1.85;;;;;;;21.23;32.74;99558.51;1872611;75;28150;-54
2023/01/26 01:27:33;;;;;;;2.12;1.92;;;;;;;21.24;32.73;99562.89;1888643;75;28106;-55
2023/01/26 01:30:21;;;;;;;1.87;1.77;;;;;;;21.26;32.71;99550.69;1888992;75;28072;-52
2023/01/26 01:33:10;;;;;;;2.02;1.92;;;;;;;21.24;32.74;99554.70;1868322;75;28255;-54
2023/01/26 01:36:05;;;;;;;2.08;1.87;;;;;;;21.24;32.72;99547.34;1884799;75;28626;-53
2023/01/26 01:38:54;;;;;;;1.75;1.65;;;;;;;21.28;32.75;99545.02;1891436;75;28046;-54
2023/01/26 01:41:42;;;;;;;1.90;1.75;;;;;;;21.26;32.75;99544.41;1875576;75;28211;-53
2023/01/26 01:44:31;;;;;;;2.10;1.90;;;;;;;21.28;32.77;99536.82;1880447;75;28293;-52
2023/01/26 01:47:24;;;;;;;1.80;1.70;;;;;;;21.29;32.71;99538.47;1890972;75;28226;-51
2023/01/26 01:50:15;;;;;;;2.83;1.98;;;;;;;21.33;32.69;99544.63;1870512;75;28470;-50
2023/01/26 01:53:06;;;;;;;1.97;1.80;;;;;;;21.35;32.67;99536.22;1879894;75;28651;-55
2023/01/26 01:56:00;;;;;;;2.37;2.00;;;;;;;21.34;32.67;99534.54;1886794;75;28085;-51
2023/01/26 01:58:52;;;;;;;1.90;1.80;;;;;;;21.37;32.64;99531.89;1884049;75;28094;-53
2023/01/26 02:01:42;;;;;;;1.90;1.80;;;;;;;21.35;32.64;99529.39;1874664;75;28186;-53
2023/01/26 02:04:30;;;;;;;1.90;1.80;;;;;;;21.38;32.63;99528.11;1895483;75;28267;-52
2023/01/26 02:07:22;;;;;;;1.92;1.82;;;;;;;21.35;32.62;99523.38;1867312;75;28092;-53
2023/01/26 02:10:20;;;;;;;2.15;2.00;;;;;;;21.35;32.61;99521.20;1890216;75;28072;-52
2023/01/26 02:13:11;;;;;;;1.87;1.77;;;;;;;21.37;32.64;99511.40;1885188;75;28149;-50
2023/01/26 02:16:01;;;;;;;1.87;1.70;;;;;;;21.35;32.66;99506.17;1886692;75;28295;-55
2023/01/26 02:18:51;;;;;;;2.00;1.90;;;;;;;21.35;32.66;99502.08;1894730;75;28152;-52
2023/01/26 02:21:41;;;;;;;1.85;1.77;;;;;;;21.37;32.67;99501.31;1885567;75;28072;-54
2023/01/26 02:24:32;;;;;;;2.00;1.90;;;;;;;21.39;32.64;99500.55;1892302;75;28116;-50
2023/01/26 02:27:21;;;;;;;1.80;1.70;;;;;;;21.38;32.64;99494.77;1896941;75;28167;-50
2023/01/26 02:30:13;;;;;;;2.22;1.90;;;;;;;21.40;32.67;99494.56;1875727;75;28152;-53
2023/01/26 02:33:02;;;;;;;2.05;1.95;;;;;;;21.39;32.64;99492.88;1890169;75;28748;-52
2023/01/26 02:35:51;;;;;;;1.90;1.80;;;;;;;21.40;32.64;99494.56;1879663;75;28192;-52
2023/01/26 02:38:43;;;;;;;1.90;1.80;;;;;;;21.39;32.68;99492.35;1875769;75;28096;-53
2023/01/26 02:44:43;;;;;;;1.90;1.80;;;;;;;21.41;32.66;99488.02;1890892;75;28006;-51
2023/01/26 02:47:32;;;;;;;1.95;1.85;;;;;;;21.39;32.71;99489.63;1873101;75;28084;-52
2023/01/26 02:50:20;;;;;;;2.00;1.90;;;;;;;21.39;32.71;99484.16;1880735;75;28686;-53
2023/01/26 02:53:08;;;;;;;1.90;1.80;;;;;;;21.41;32.70;99489.38;1879990;75;28167;-52
2023/01/26 02:55:57;;;;;;;1.87;1.77;;;;;;;21.44;32.69;99484.31;1884537;75;28188;-53
2023/01/26 02:58:45;;;;;;;2.00;1.90;;;;;;;21.43;32.71;99474.43;1898764;75;28099;-55
2023/01/26 03:01:34;;;;;;;2.12;2.00;;;;;;;21.43;32.71;99473.59;1885378;75;28181;-50
2023/01/26 03:04:22;;;;;;;2.20;2.00;;;;;;;21.46;32.71;99474.51;1868926;75;28084;-50
2023/01/26 03:07:10;;;;;;;1.80;1.70;;;;;;;21.46;32.69;99477.24;1891943;75;28094;-51
2023/01/26 03:09:59;;;;;;;1.90;1.80;;;;;;;21.45;32.71;99468.76;1868698;75;28119;-50
2023/01/26 03:12:49;;;;;;;2.47;1.65;;;;;;;21.46;32.70;99471.25;1874973;75;28159;-50
2023/01/26 03:15:41;;;;;;;1.90;1.80;;;;;;;21.47;32.73;99468.80;1882427;75;28188;-50
2023/01/26 03:27:52;;;;;;;3.95;2.10;;;;;;;21.50;32.65;99472.45;1887508;75;28120;-49
2023/01/26 03:30:40;;;;;;;2.52;2.20;;;;;;;21.46;32.67;99461.69;1882219;75;28213;-49
2023/01/26 03:33:29;;;;;;;2.10;2.00;;;;;;;21.48;32.65;99465.02;1888646;75;28557;-49
2023/01/26 03:36:18;;;;;;;2.20;2.00;;;;;;;21.46;32.66;99463.05;1889369;75;28092;-50
2023/01/26 03:39:07;;;;;;;2.20;2.00;;;;;;;21.49;32.63;99455.77;1879233;75;28002;-48
2023/01/26 03:57:33;;;;;;;2.10;2.00;;;;;;;21.45;32.62;99453.17;1872918;75;28154;-50
2023/01/26 04:00:21;;;;;;;2.20;2.00;;;;;;;21.47;32.59;99444.20;1861942;75;28158;-50
2023/01/26 04:09:23;;;;;;;2.30;2.10;;;;;;;21.50;32.54;99436.93;1879837;75;28003;-53
2023/01/26 04:12:12;;;;;;;2.80;2.50;;;;;;;21.52;32.50;99438.09;1862713;75;28192;-52
2023/01/26 04:21:34;;;;;;;2.30;2.10;;;;;;;21.54;32.41;99431.30;1888582;75;38395;-54
2023/01/26 04:24:20;;;;;;;2.50;2.30;;;;;;;21.52;32.43;99423.86;1886059;75;28007;-49
2023/01/26 04:27:10;;;;;;;2.30;2.20;;;;;;;21.53;32.42;99428.81;1871191;75;28075;-51
2023/01/26 04:30:00;;;;;;;2.30;2.20;;;;;;;21.56;32.38;99429.20;1863002;75;28289;-51
2023/01/26 04:32:51;;;;;;;2.67;2.47;;;;;;;21.58;32.35;99427.06;1880350;75;28210;-52
2023/01/26 04:35:39;;;;;;;2.40;2.20;;;;;;;21.59;32.30;99426.51;1860131;75;28095;-52
2023/01/26 04:38:28;;;;;;;2.37;2.20;;;;;;;21.61;32.31;99427.14;1881146;75;28058;-49
2023/01/26 04:41:18;;;;;;;2.30;2.20;;;;;;;21.60;32.28;99409.06;1875478;75;28058;-53
2023/01/26 04:44:07;;;;;;;2.12;2.00;;;;;;;21.62;32.27;99414.60;1868442;75;28150;-50
2023/01/26 04:46:56;;;;;;;3.15;2.30;;;;;;;21.62;32.23;99408.30;1878362;75;28257;-51
2023/01/26 04:49:45;;;;;;;2.10;2.00;;;;;;;21.62;32.23;99407.77;1873682;75;28297;-52
2023/01/26 04:52:35;;;;;;;2.37;2.20;;;;;;;21.62;32.22;99402.83;1861335;75;28147;-51
2023/01/26 04:55:24;;;;;;;2.70;2.20;;;;;;;21.64;32.22;99400.17;1860172;75;28608;-52
2023/01/26 04:58:12;;;;;;;2.30;2.20;;;;;;;21.66;32.17;99397.19;1880291;75;28280;-50
2023/01/26 05:01:01;;;;;;;2.10;2.00;;;;;;;21.67;32.15;99398.87;1881165;75;28140;-51
2023/01/26 05:03:50;;;;;;;2.77;2.58;;;;;;;21.67;32.16;99394.25;1860111;75;28103;-50
2023/01/26 05:06:40;;;;;;;2.50;2.30;;;;;;;21.58;32.13;99380.60;1869239;75;28074;-52
2023/01/26 05:09:29;;;;;;;2.40;2.30;;;;;;;21.67;32.16;99397.51;1867848;75;28154;-50
2023/01/26 05:12:37;;;;;;;2.30;2.20;;;;;;;21.67;32.13;99394.25;1868687;75;28167;-51
2023/01/26 05:15:44;;;;;;;2.20;2.10;;;;;;;21.67;32.15;99393.41;1869533;75;28139;-53
2023/01/26 05:18:43;;;;;;;2.40;2.20;;;;;;;21.65;32.17;99395.55;1804993;76;28477;-51
2023/01/26 05:21:38;;;;;;;2.27;1.90;;;;;;;21.65;32.14;99386.81;1877133;75;28049;-51
2023/01/26 05:24:27;;;;;;;2.17;2.08;;;;;;;21.67;32.09;99381.95;1878944;75;28123;-48
2023/01/26 05:27:22;;;;;;;2.45;2.30;;;;;;;21.69;32.10;99378.45;1860128;75;28109;-50
2023/01/26 05:30:13;;;;;;;2.47;2.27;;;;;;;21.69;32.06;99378.45;1860370;75;28306;-53
2023/01/26 05:33:04;;;;;;;2.03;1.93;;;;;;;21.68;32.06;99370.48;1876124;75;28053;-49
2023/01/26 05:35:55;;;;;;;2.27;2.10;;;;;;;21.70;32.09;99373.81;1875255;75;27986;-49
2023/01/26 05:38:43;;;;;;;2.00;1.90;;;;;;;21.72;32.10;99372.52;1889186;75;28011;-51
2023/01/26 05:41:32;;;;;;;2.15;2.05;;;;;;;21.71;32.11;99365.38;1874032;75;28080;-52
2023/01/26 05:44:32;;;;;;;2.47;2.27;;;;;;;21.71;32.13;99367.27;1850683;75;28138;-52
2023/01/26 05:47:22;;;;;;;2.20;2.10;;;;;;;21.70;32.18;99360.15;1868488;75;28033;-51
2023/01/26 05:50:13;;;;;;;2.10;2.00;;;;;;;21.71;32.20;99367.27;1861021;74;28115;-49
2023/01/26 05:53:02;;;;;;;1.90;1.80;;;;;;;21.73;32.21;99364.61;1867806;75;28167;-51
2023/01/26 05:55:52;;;;;;;2.20;2.10;;;;;;;21.73;32.18;99360.50;1861480;75;30172;-50
2023/01/26 05:58:41;;;;;;;2.08;1.98;;;;;;;21.76;32.20;99364.15;1873738;75;28097;-51
2023/01/26 06:01:30;;;;;;;2.02;1.92;;;;;;;21.76;32.21;99358.69;1882862;75;28022;-52
2023/01/26 06:04:20;;;;;;;2.37;2.15;;;;;;;21.76;32.24;99354.58;1880111;75;28146;-51
2023/01/26 06:07:16;;;;;;;2.20;2.10;;;;;;;21.76;32.25;99355.95;1879984;75;28232;-51
2023/01/26 06:10:10;;;;;;;2.00;1.90;;;;;;;21.77;32.31;99352.69;1894033;75;28275;-50
2023/01/26 06:13:03;;;;;;;2.00;1.80;;;;;;;21.77;32.29;99357.62;1884421;75;28105;-53
2023/01/26 06:15:56;;;;;;;2.08;1.98;;;;;;;21.79;32.30;99357.38;1888751;75;28114;-50
2023/01/26 06:18:51;;;;;;;2.45;2.25;;;;;;;21.78;32.42;99361.17;1883024;74;28190;-56
2023/01/26 06:21:40;;;;;;;2.40;2.20;;;;;;;21.77;32.35;99354.90;1871444;74;28142;-54
2023/01/26 06:24:29;;;;;;;2.17;2.08;;;;;;;21.77;32.38;99360.36;1877771;75;28085;-53
2023/01/26 06:27:19;;;;;;;3.10;2.80;;;;;;;21.79;32.28;99358.75;1897080;75;28092;-52
2023/01/26 06:30:10;;;;;;;3.23;3.03;;;;;;;21.79;31.62;99350.02;1875673;75;28203;-52
2023/01/26 06:32:59;;;;;;;3.75;3.25;;;;;;;21.68;31.01;99334.39;1868390;75;28152;-55
2023/01/26 06:35:47;;;;;;;3.25;3.05;;;;;;;21.79;30.79;99345.08;1892983;75;28237;-50
2023/01/26 06:38:36;;;;;;;2.90;2.70;;;;;;;21.80;30.76;99342.62;1891453;75;28752;-51
2023/01/26 06:41:25;;;;;;;2.70;2.50;;;;;;;21.84;30.75;99342.52;1884179;75;28273;-52
2023/01/26 06:44:13;;;;;;;2.60;2.40;;;;;;;21.85;30.74;99336.81;1877503;75;28256;-58
2023/01/26 06:47:02;;;;;;;2.80;2.60;;;;;;;21.89;30.72;99341.29;1880472;75;28241;-51
2023/01/26 06:49:50;;;;;;;2.90;2.60;;;;;;;21.90;30.49;99345.15;1876800;75;28680;-50
2023/01/26 06:52:43;;;;;;;2.95;2.72;;;;;;;21.96;30.46;99342.84;1876969;75;28075;-51
2023/01/26 06:55:54;;;;;;;2.90;2.50;;;;;;;21.93;30.57;99340.59;1877471;75;28049;-50
2023/01/26 06:58:56;;;;;;;2.72;2.45;;;;;;;21.97;30.68;99345.04;1868520;75;28157;-54
2023/01/26 07:01:56;;;;;;;2.47;2.30;;;;;;;21.94;30.69;99342.77;1837092;75;28413;-52
2023/01/26 07:04:45;;;;;;;2.70;2.50;;;;;;;21.93;30.78;99339.22;1879481;75;28210;-52
2023/01/26 07:07:33;;;;;;;2.30;2.20;;;;;;;21.95;30.80;99338.98;1879249;75;28179;-52
2023/01/26 07:10:22;;;;;;;2.62;2.42;;;;;;;21.98;30.83;99337.95;1868665;76;28187;-54
2023/01/26 07:13:10;;;;;;;2.65;2.12;;;;;;;22.01;30.89;99336.66;1877054;75;28156;-56
2023/01/26 07:16:07;;;;;;;2.35;2.15;;;;;;;22.05;30.98;99338.41;1872937;75;28113;-55
2023/01/26 07:18:56;;;;;;;2.42;2.12;;;;;;;22.10;31.08;99330.34;1893022;73;28222;-54
2023/01/26 07:21:45;;;;;;;2.00;1.90;;;;;;;21.90;31.41;99321.91;1867040;75;28140;-56
2023/01/26 07:24:33;;;;;;;2.45;2.20;;;;;;;21.79;31.78;99334.98;1874565;75;28692;-50
2023/01/26 07:27:21;;;;;;;2.30;2.00;;;;;;;21.75;31.96;99328.85;1874786;75;28728;-54
2023/01/26 07:30:13;;;;;;;2.05;1.95;;;;;;;21.74;32.22;99326.64;1862319;74;28192;-54
2023/01/26 07:33:01;;;;;;;2.40;2.10;;;;;;;21.75;32.32;99324.19;1897529;75;28164;-46
2023/01/26 07:35:55;;;;;;;2.08;1.98;;;;;;;21.76;32.37;99324.51;1893284;75;28317;-46
2023/01/26 07:38:43;;;;;;;2.00;1.90;;;;;;;21.76;32.38;99325.88;1877251;74;28232;-46
2023/01/26 07:41:32;;;;;;;2.20;1.92;;;;;;;21.72;32.62;99326.05;1874909;74;28238;-50
2023/01/26 07:44:20;;;;;;;2.47;2.20;;;;;;;21.74;32.75;99328.02;1881334;75;28204;-48
2023/01/26 07:47:09;;;;;;;2.87;2.30;;;;;;;21.74;32.86;99329.91;1882674;75;28230;-47
2023/01/26 07:49:58;;;;;;;2.00;1.90;;;;;;;21.83;32.84;99327.97;1875243;75;28266;-56
2023/01/26 07:52:48;;;;;;;2.35;1.90;;;;;;;21.88;32.87;99328.67;1885456;75;28229;-55
2023/01/26 07:55:36;;;;;;;2.00;1.90;;;;;;;22.11;32.54;99321.05;1877988;75;28102;-51
2023/01/26 07:58:25;;;;;;;2.10;1.90;;;;;;;22.19;32.28;99319.34;1812942;77;28363;-52
2023/01/26 08:01:15;;;;;;;2.00;1.90;;;;;;;22.25;32.10;99311.02;1873911;75;28269;-55
2023/01/26 08:04:04;;;;;;;2.40;1.80;;;;;;;22.28;32.03;99310.55;1848121;76;28202;-54
2023/01/26 08:06:52;;;;;;;2.00;1.90;;;;;;;22.29;31.95;99303.99;1817663;78;28322;-54
2023/01/26 08:09:41;;;;;;;2.50;2.00;;;;;;;22.31;31.87;99311.98;1818541;77;28334;-55
2023/01/26 08:12:29;;;;;;;2.10;2.00;;;;;;;22.29;31.85;99314.94;1813941;78;28285;-57
2023/01/26 08:15:17;;;;;;;1.90;1.80;;;;;;;22.30;31.84;99317.14;1815320;78;28284;-56
2023/01/26 08:18:05;;;;;;;1.83;1.73;;;;;;;22.30;31.81;99313.88;1813515;78;28393;-53
2023/01/26 08:20:56;;;;;;;2.05;1.87;;;;;;;22.30;31.80;99310.30;1825760;78;28271;-51
2023/01/26 08:23:45;;;;;;;2.00;1.90;;;;;;;22.31;31.78;99316.09;1815326;78;28376;-51
2023/01/26 08:26:34;;;;;;;1.80;1.70;;;;;;;22.26;31.75;99307.75;1844762;76;28386;-51
2023/01/26 08:29:22;;;;;;;3.35;2.08;;;;;;;22.26;31.77;99306.38;1828899;76;28298;-53
2023/01/26 08:32:11;;;;;;;1.80;1.60;;;;;;;22.25;31.77;99313.75;1842059;76;28268;-54
2023/01/26 08:34:59;;;;;;;1.98;1.87;;;;;;;22.23;31.79;99315.89;1820283;77;31499;-54
2023/01/26 08:37:48;;;;;;;4.47;2.05;;;;;;;22.23;31.78;99309.06;1835959;76;28276;-54
2023/01/26 08:40:37;;;;;;;1.77;1.67;;;;;;;22.22;31.82;99307.94;1817898;78;28277;-55
2023/01/26 08:43:25;;;;;;;2.30;1.87;;;;;;;22.21;31.83;99310.36;1817052;78;28333;-55
2023/01/26 08:46:14;;;;;;;1.80;1.70;;;;;;;22.20;31.88;99307.31;1838872;76;28316;-52
2023/01/26 08:49:02;;;;;;;1.65;1.60;;;;;;;22.19;31.82;99303.77;1827980;76;28303;-55
2023/01/26 08:51:51;;;;;;;2.10;2.00;;;;;;;22.17;31.90;99305.88;1844218;76;28765;-54
2023/01/26 08:54:39;;;;;;;3.02;1.98;;;;;;;22.20;31.85;99308.16;1838714;76;28373;-51
2023/01/26 08:57:28;;;;;;;1.80;1.70;;;;;;;22.18;31.84;99312.19;1860167;75;28326;-52
2023/01/26 09:00:17;;;;;;;1.83;1.73;;;;;;;22.17;31.89;99313.28;1849271;76;28317;-53
2023/01/26 09:03:07;;;;;;;2.05;1.95;;;;;;;22.20;31.85;99312.25;1863855;75;28164;-52
2023/01/26 09:05:59;;;;;;;1.80;1.70;;;;;;;22.19;31.86;99311.13;1860881;75;27802;-52
2023/01/26 09:08:48;;;;;;;1.70;1.60;;;;;;;22.21;31.85;99317.20;1840699;76;28326;-56
2023/01/26 09:11:36;;;;;;;1.80;1.70;;;;;;;22.20;31.80;99315.52;1874825;75;28221;-55
2023/01/26 09:14:24;;;;;;;1.80;1.70;;;;;;;22.18;31.81;99315.77;1879585;75;28187;-51
2023/01/26 09:17:13;;;;;;;1.72;1.62;;;;;;;22.16;31.85;99311.07;1851440;75;28321;-52
2023/01/26 09:20:02;;;;;;;2.00;1.80;;;;;;;22.18;31.84;99312.19;1863388;75;28228;-53
2023/01/26 09:22:50;;;;;;;1.83;1.73;;;;;;;22.17;31.87;99307.81;1892708;75;28288;-51
2023/01/26 09:25:40;;;;;;;1.92;1.80;;;;;;;22.15;31.84;99316.23;1884138;75;28223;-49
2023/01/26 09:28:29;;;;;;;1.80;1.70;;;;;;;22.16;31.82;99315.17;1863252;74;28874;-51
2023/01/26 09:31:18;;;;;;;1.72;1.62;;;;;;;22.17;31.84;99313.28;1875854;75;28184;-54
2023/01/26 09:34:06;;;;;;;2.00;1.50;;;;;;;22.17;31.83;99311.91;1875478;75;28312;-55
2023/01/26 09:36:54;;;;;;;1.60;1.50;;;;;;;22.17;31.83;99314.64;1868240;75;28361;-57
2023/01/26 09:39:43;;;;;;;1.90;1.80;;;;;;;22.16;31.88;99316.55;1855589;76;28235;-52
2023/01/26 09:42:40;;;;;;;1.77;1.67;;;;;;;22.14;31.88;99315.11;1856884;75;28765;-51
2023/01/26 09:45:31;;;;;;;1.70;1.60;;;;;;;22.17;31.89;99315.45;1884166;75;28282;-53
2023/01/26 09:48:26;;;;;;;1.75;1.65;;;;;;;22.14;31.86;99317.84;1877689;75;28193;-54
2023/01/26 09:51:32;;;;;;;1.62;1.52;;;;;;;22.14;31.87;99320.05;1884310;75;28098;-53
2023/01/26 09:54:41;;;;;;;2.25;1.80;;;;;;;22.13;31.89;99318.38;1857300;75;28003;-54
2023/01/26 09:57:39;;;;;;;1.80;1.70;;;;;;;22.10;31.96;99320.77;1872090;75;28018;-52
2023/01/26 10:00:39;;;;;;;1.65;1.55;;;;;;;22.09;31.95;99317.72;1871888;75;31952;-51
2023/01/26 10:04:00;;;;;;;2.22;1.72;;;;;;;22.11;31.94;99319.67;1881362;75;28136;-52
2023/01/26 10:06:49;;;;;;;1.60;1.50;;;;;;;22.11;31.93;99320.52;1845072;76;28255;-51
2023/01/26 10:09:51;;;;;;;2.07;1.80;;;;;;;22.06;31.96;99320.38;1833179;76;27902;-52
2023/01/26 10:12:40;;;;;;;1.90;1.80;;;;;;;22.08;31.94;99316.06;1845617;76;28135;-51
2023/01/26 10:15:42;;;;;;;1.90;1.80;;;;;;;22.07;31.99;99323.95;1827426;78;28849;-52
2023/01/26 10:18:42;;;;;;;1.80;1.70;;;;;;;22.09;31.98;99317.19;1841093;76;28166;-54
2023/01/26 10:21:36;;;;;;;1.70;1.60;;;;;;;22.11;31.94;99319.67;1857101;76;28201;-54
2023/01/26 10:24:24;;;;;;;1.70;1.60;;;;;;;22.08;31.98;99325.64;1852993;76;28147;-55
2023/01/26 10:27:15;;;;;;;1.93;1.83;;;;;;;22.11;31.95;99325.14;1835932;76;27949;-53
2023/01/26 10:30:05;;;;;;;1.62;1.52;;;;;;;22.11;31.95;99319.67;1836736;76;28241;-53
2023/01/26 10:32:57;;;;;;;2.20;1.67;;;;;;;22.14;31.92;99320.05;1851617;76;28313;-53
2023/01/26 10:35:45;;;;;;;1.80;1.47;;;;;;;22.15;31.91;99320.89;1838589;76;28263;-49
2023/01/26 10:38:36;;;;;;;1.85;1.67;;;;;;;22.16;31.89;99319.80;1848138;76;28202;-54
2023/01/26 10:41:28;;;;;;;1.60;1.50;;;;;;;22.17;31.83;99322.86;1833767;76;28318;-53
2023/01/26 10:44:24;;;;;;;1.42;1.40;;;;;;;22.16;31.83;99315.17;1839543;76;28217;-53
2023/01/26 10:47:19;;;;;;;1.60;1.60;;;;;;;22.16;31.85;99310.23;1854999;76;28223;-53
2023/01/26 10:50:17;;;;;;;1.40;1.40;;;;;;;22.17;31.85;99307.81;1841030;76;28286;-51
2023/01/26 10:53:05;;;;;;;1.80;1.70;;;;;;;22.16;31.85;99304.77;1846512;76;28321;-53
2023/01/26 10:56:15;;;;;;;1.73;1.63;;;;;;;22.15;31.85;99303.92;1832690;76;28663;-54
2023/01/26 10:59:07;;;;;;;1.60;1.50;;;;;;;22.15;31.83;99308.02;1833161;76;28353;-51
2023/01/26 11:02:17;;;;;;;1.70;1.60;;;;;;;22.14;31.90;99303.64;1836802;76;28184;-54
2023/01/26 11:05:08;;;;;;;1.40;1.40;;;;;;;22.14;31.84;99302.80;1837548;76;28220;-53
2023/01/26 11:07:59;;;;;;;1.65;1.55;;;;;;;22.13;31.85;99303.85;1890284;75;28119;-56
2023/01/26 11:10:56;;;;;;;1.50;1.40;;;;;;;22.18;31.84;99302.61;1870063;75;28137;-53
2023/01/26 11:13:43;;;;;;;1.50;1.40;;;;;;;22.19;31.81;99300.19;1875430;75;28117;-56
2023/01/26 11:16:33;;;;;;;1.80;1.55;;;;;;;22.17;31.85;99295.50;1885999;75;28106;-51
2023/01/26 11:19:34;;;;;;;1.70;1.60;;;;;;;22.18;31.81;99299.35;1873852;75;28082;-53
2023/01/26 11:22:37;;;;;;;1.40;1.40;;;;;;;22.16;31.82;99286.98;1878112;75;28139;-53
2023/01/26 11:25:41;;;;;;;1.90;1.62;;;;;;;22.17;31.85;99299.59;1889483;75;27979;-55
2023/01/26 11:28:46;;;;;;;1.35;1.35;;;;;;;22.13;31.91;99290.17;1886921;75;28114;-54
2023/01/26 11:31:59;;;;;;;1.40;1.40;;;;;;;22.12;31.92;99293.47;1869579;75;28055;-51
2023/01/26 11:34:53;;;;;;;1.77;1.62;;;;;;;22.14;31.90;99288.59;1869277;75;28194;-53
2023/01/26 11:38:16;;;;;;;1.67;1.57;;;;;;;22.12;31.96;99281.16;1885755;75;28162;-52
2023/01/26 11:41:19;;;;;;;1.67;1.57;;;;;;;22.13;31.94;99284.17;1879393;75;28194;-58
2023/01/26 11:44:14;;;;;;;1.50;1.40;;;;;;;22.07;32.00;99282.92;1890549;75;28129;-51
2023/01/26 11:47:14;;;;;;;1.63;1.50;;;;;;;22.07;32.00;99278.83;1886852;75;27988;-52
2023/01/26 11:50:06;;;;;;;1.70;1.60;;;;;;;22.11;31.98;99274.54;1884715;75;28160;-53
2023/01/26 11:53:22;;;;;;;1.40;1.40;;;;;;;22.08;32.00;99264.09;1891581;75;28623;-54
2023/01/26 11:56:31;;;;;;;1.72;1.62;;;;;;;22.09;31.99;99268.48;1909939;74;28510;-52
2023/01/26 11:59:28;;;;;;;1.47;1.47;;;;;;;22.10;31.99;99266.05;1872253;75;28274;-54
2023/01/26 12:02:37;;;;;;;1.60;1.50;;;;;;;22.08;32.01;99262.72;1885918;75;28027;-52
2023/01/26 12:05:31;;;;;;;1.60;1.50;;;;;;;22.09;32.02;99268.48;1890796;75;28095;-53
2023/01/26 12:08:25;;;;;;;1.70;1.60;;;;;;;22.10;31.96;99259.21;1884830;75;28055;-54
2023/01/26 12:11:35;;;;;;;2.00;1.72;;;;;;;22.08;31.98;99259.43;1887952;75;28009;-53
2023/01/26 12:14:26;;;;;;;1.60;1.50;;;;;;;22.08;31.99;99251.78;1881909;75;28118;-53
2023/01/26 12:17:40;;;;;;;1.90;1.50;;;;;;;22.07;31.99;99249.58;1878027;75;28196;-53
2023/01/26 12:20:38;;;;;;;1.60;1.50;;;;;;;22.11;31.92;99251.28;1882803;75;28094;-53
2023/01/26 12:23:32;;;;;;;1.80;1.70;;;;;;;22.08;31.95;99247.68;1874002;75;27759;-55
2023/01/26 12:26:24;;;;;;;1.75;1.65;;;;;;;22.07;31.98;99241.90;1878291;75;28450;-52
2023/01/26 12:29:24;;;;;;;1.60;1.50;;;;;;;22.10;31.92;99244.17;1890454;75;28169;-52
2023/01/26 12:32:15;;;;;;;1.65;1.55;;;;;;;22.10;31.92;99241.44;1871902;75;27738;-53
2023/01/26 12:35:05;;;;;;;1.60;1.50;;;;;;;22.09;31.91;99243.33;1881254;75;28085;-53
2023/01/26 12:37:56;;;;;;;1.77;1.67;;;;;;;22.12;31.88;99236.55;1897794;75;28103;-54
2023/01/26 12:41:05;;;;;;;1.42;1.40;;;;;;;22.12;31.87;99230.55;1876596;75;30010;-54
2023/01/26 12:44:15;;;;;;;1.55;1.45;;;;;;;22.14;31.83;99227.56;1891232;75;28142;-51
2023/01/26 12:47:09;;;;;;;1.32;1.32;;;;;;;22.12;31.80;99223.72;1880916;75;28055;-54
2023/01/26 12:50:04;;;;;;;1.60;1.50;;;;;;;22.10;31.92;99225.02;1876847;75;28083;-52
2023/01/26 12:52:58;;;;;;;1.77;1.67;;;;;;;22.11;31.86;99219.83;1874090;75;28058;-54
2023/01/26 12:55:59;;;;;;;1.67;1.57;;;;;;;22.13;31.83;99218.52;1877552;75;28154;-51
2023/01/26 12:58:49;;;;;;;2.00;1.55;;;;;;;22.12;31.83;99213.30;1869731;75;28511;-54
2023/01/26 13:01:41;;;;;;;1.62;1.52;;;;;;;22.10;31.83;99205.31;1882865;75;28260;-55
2023/01/26 13:04:30;;;;;;;1.50;1.40;;;;;;;22.13;31.81;99208.11;1878028;75;28078;-52
2023/01/26 13:07:39;;;;;;;1.60;1.50;;;;;;;22.12;31.82;99206.46;1879670;74;35158;-51
2023/01/26 13:10:29;;;;;;;1.70;1.60;;;;;;;22.13;31.77;99206.21;1848785;76;28187;-55
2023/01/26 13:13:30;;;;;;;1.40;1.40;;;;;;;22.13;31.79;99198.53;1861925;76;28205;-52
2023/01/26 13:16:23;;;;;;;1.60;1.50;;;;;;;22.14;31.80;99196.11;1858712;76;28604;-51
2023/01/26 13:19:14;;;;;;;1.70;1.60;;;;;;;22.14;31.75;99191.48;1885387;75;28557;-54
2023/01/26 13:22:03;;;;;;;1.45;1.40;;;;;;;22.11;31.76;99193.84;1876476;75;28567;-53
2023/01/26 13:24:57;;;;;;;1.70;1.60;;;;;;;22.09;31.79;99194.63;1874627;75;28106;-54
2023/01/26 13:27:48;;;;;;;1.67;1.57;;;;;;;22.11;31.78;99198.78;1866711;75;28172;-53
2023/01/26 13:30:45;;;;;;;1.40;1.40;;;;;;;22.13;31.72;99195.27;1886499;75;28055;-51
2023/01/26 13:33:33;;;;;;;1.50;1.40;;;;;;;22.12;31.76;99198.25;1879038;75;27995;-50
2023/01/26 13:36:24;;;;;;;1.60;1.50;;;;;;;22.12;31.75;99195.52;1840174;77;30266;-54
2023/01/26 13:39:15;;;;;;;1.32;1.32;;;;;;;22.12;31.74;99191.42;1867280;75;28232;-49
2023/01/26 13:42:19;;;;;;;1.57;1.47;;;;;;;22.13;31.71;99191.70;1863134;75;28298;-51
2023/01/26 13:45:10;;;;;;;1.60;1.50;;;;;;;22.14;31.70;99190.64;1815918;76;28229;-55
2023/01/26 13:48:01;;;;;;;1.30;1.30;;;;;;;22.14;31.68;99193.37;1884038;75;28083;-55
2023/01/26 13:50:52;;;;;;;1.57;1.47;;;;;;;22.15;31.68;99193.69;1851014;76;28385;-51
2023/01/26 13:53:43;;;;;;;1.37;1.37;;;;;;;22.15;31.68;99190.95;1845718;77;28232;-52
2023/01/26 13:56:37;;;;;;;1.55;1.45;;;;;;;22.14;31.64;99193.37;1852754;75;28212;-54
2023/01/26 13:59:26;;;;;;;1.50;1.40;;;;;;;22.11;31.72;99186.47;1853301;76;28206;-52
2023/01/26 14:02:27;;;;;;;1.40;1.30;;;;;;;22.13;31.70;99183.48;1822888;77;28784;-54
2023/01/26 14:05:22;;;;;;;1.50;1.40;;;;;;;22.11;31.67;99184.27;1861265;75;28275;-52
2023/01/26 14:08:14;;;;;;;1.30;1.30;;;;;;;22.11;31.71;99181.00;1870809;75;28181;-51
2023/01/26 14:11:06;;;;;;;1.37;1.37;;;;;;;22.13;31.64;99179.39;1872839;75;28119;-52